sensor_id;sensor_type;location;lat;lon;timestamp;P1;durP1;ratioP1;P2;durP2;ratioP2
12597;SDS011;6364;53.590;9.956;2023-05-17T00:00:35;27.77;;;5.53;;
12597;SDS011;6364;53.590;9.956;2023-05-17T00:03:00;26.20;;;6.03;;
12597;SDS011;6364;53.590;9.956;2023-05-17T00:05:25;29.13;;;5.22;;
12597;SDS011;6364;53.590;9.956;2023-05-17T00:07:51;20.17;;;5.15;;
12597;SDS011;6364;53.590;9.956;2023-05-17T00:10:16;31.10;;;5.30;;
12597;SDS011;6364;53.590;9.956;2023-05-17T00:12:41;20.63;;;5.18;;
12597;SDS011;6364;53.590;9.956;2023-05-17T00:15:07;30.95;;;5.13;;
12597;SDS011;6364;53.590;9.956;2023-05-17T00:17:32;30.88;;;5.20;;
12597;SDS011;6364;53.590;9.956;2023-05-17T00:19:58;32.10;;;5.53;;
12597;SDS011;6364;53.590;9.956;2023-05-17T00:22:23;22.92;;;5.35;;
12597;SDS011;6364;53.590;9.956;2023-05-17T00:24:48;20.10;;;4.63;;
12597;SDS011;6364;53.590;9.956;2023-05-17T00:27:14;26.60;;;4.63;;
12597;SDS011;6364;53.590;9.956;2023-05-17T00:29:39;16.08;;;4.57;;
12597;SDS011;6364;53.590;9.956;2023-05-17T00:32:04;29.83;;;5.32;;
12597;SDS011;6364;53.590;9.956;2023-05-17T00:34:30;25.75;;;4.72;;
12597;SDS011;6364;53.590;9.956;2023-05-17T00:36:55;30.17;;;4.70;;
12597;SDS011;6364;53.590;9.956;2023-05-17T00:39:21;33.53;;;5.10;;
12597;SDS011;6364;53.590;9.956;2023-05-17T00:41:46;30.90;;;5.07;;
12597;SDS011;6364;53.590;9.956;2023-05-17T00:44:11;19.15;;;4.43;;
12597;SDS011;6364;53.590;9.956;2023-05-17T00:46:36;19.08;;;4.53;;
12597;SDS011;6364;53.590;9.956;2023-05-17T00:49:02;22.05;;;4.45;;
12597;SDS011;6364;53.590;9.956;2023-05-17T00:51:27;24.35;;;4.68;;
12597;SDS011;6364;53.590;9.956;2023-05-17T00:53:53;27.48;;;4.60;;
12597;SDS011;6364;53.590;9.956;2023-05-17T00:56:18;26.65;;;5.07;;
12597;SDS011;6364;53.590;9.956;2023-05-17T00:58:44;20.35;;;4.47;;
12597;SDS011;6364;53.590;9.956;2023-05-17T01:01:09;20.90;;;4.60;;
12597;SDS011;6364;53.590;9.956;2023-05-17T01:03:35;22.67;;;4.78;;
12597;SDS011;6364;53.590;9.956;2023-05-17T01:06:00;21.30;;;4.65;;
12597;SDS011;6364;53.590;9.956;2023-05-17T01:08:26;22.98;;;4.72;;
12597;SDS011;6364;53.590;9.956;2023-05-17T01:10:53;22.02;;;4.60;;
12597;SDS011;6364;53.590;9.956;2023-05-17T01:13:32;16.33;;;4.00;;
12597;SDS011;6364;53.590;9.956;2023-05-17T01:16:39;22.98;;;4.63;;
12597;SDS011;6364;53.590;9.956;2023-05-17T01:22:14;28.90;;;4.82;;
12597;SDS011;6364;53.590;9.956;2023-05-17T01:25:03;25.67;;;4.88;;
12597;SDS011;6364;53.590;9.956;2023-05-17T01:27:36;25.85;;;4.85;;
12597;SDS011;6364;53.590;9.956;2023-05-17T01:30:04;33.17;;;4.93;;
12597;SDS011;6364;53.590;9.956;2023-05-17T01:32:31;32.53;;;4.93;;
12597;SDS011;6364;53.590;9.956;2023-05-17T01:34:57;24.25;;;4.55;;
12597;SDS011;6364;53.590;9.956;2023-05-17T01:37:22;20.52;;;3.95;;
12597;SDS011;6364;53.590;9.956;2023-05-17T01:39:48;21.77;;;4.35;;
12597;SDS011;6364;53.590;9.956;2023-05-17T01:42:21;20.90;;;4.40;;
12597;SDS011;6364;53.590;9.956;2023-05-17T01:44:49;14.40;;;3.50;;
12597;SDS011;6364;53.590;9.956;2023-05-17T01:47:37;25.85;;;3.83;;
12597;SDS011;6364;53.590;9.956;2023-05-17T01:50:11;22.77;;;3.33;;
12597;SDS011;6364;53.590;9.956;2023-05-17T01:57:57;22.55;;;3.80;;
12597;SDS011;6364;53.590;9.956;2023-05-17T02:00:23;18.85;;;3.60;;
12597;SDS011;6364;53.590;9.956;2023-05-17T02:02:49;21.13;;;3.15;;
12597;SDS011;6364;53.590;9.956;2023-05-17T02:05:15;18.38;;;3.30;;
12597;SDS011;6364;53.590;9.956;2023-05-17T02:07:40;15.85;;;3.22;;
12597;SDS011;6364;53.590;9.956;2023-05-17T02:10:06;18.67;;;2.67;;
12597;SDS011;6364;53.590;9.956;2023-05-17T02:12:31;20.45;;;3.08;;
12597;SDS011;6364;53.590;9.956;2023-05-17T02:14:57;19.58;;;3.22;;
12597;SDS011;6364;53.590;9.956;2023-05-17T02:17:22;14.32;;;3.17;;
12597;SDS011;6364;53.590;9.956;2023-05-17T02:19:48;23.70;;;3.45;;
12597;SDS011;6364;53.590;9.956;2023-05-17T02:22:13;29.40;;;3.20;;
12597;SDS011;6364;53.590;9.956;2023-05-17T02:24:38;18.95;;;2.95;;
12597;SDS011;6364;53.590;9.956;2023-05-17T02:27:04;20.75;;;2.90;;
12597;SDS011;6364;53.590;9.956;2023-05-17T02:29:29;18.40;;;3.15;;
12597;SDS011;6364;53.590;9.956;2023-05-17T02:31:55;14.13;;;3.30;;
12597;SDS011;6364;53.590;9.956;2023-05-17T02:34:21;15.95;;;3.00;;
12597;SDS011;6364;53.590;9.956;2023-05-17T02:36:46;17.13;;;3.25;;
12597;SDS011;6364;53.590;9.956;2023-05-17T02:39:12;19.92;;;3.13;;
12597;SDS011;6364;53.590;9.956;2023-05-17T02:41:37;15.93;;;2.83;;
12597;SDS011;6364;53.590;9.956;2023-05-17T02:44:03;18.92;;;2.97;;
12597;SDS011;6364;53.590;9.956;2023-05-17T02:46:28;18.95;;;3.10;;
12597;SDS011;6364;53.590;9.956;2023-05-17T02:48:53;19.88;;;3.47;;
12597;SDS011;6364;53.590;9.956;2023-05-17T02:51:19;17.95;;;3.00;;
12597;SDS011;6364;53.590;9.956;2023-05-17T02:53:44;17.77;;;2.53;;
12597;SDS011;6364;53.590;9.956;2023-05-17T02:56:09;15.10;;;2.72;;
12597;SDS011;6364;53.590;9.956;2023-05-17T02:58:35;21.85;;;2.80;;
12597;SDS011;6364;53.590;9.956;2023-05-17T03:01:01;15.13;;;2.40;;
12597;SDS011;6364;53.590;9.956;2023-05-17T03:03:26;21.65;;;2.95;;
12597;SDS011;6364;53.590;9.956;2023-05-17T03:05:52;15.90;;;2.80;;
12597;SDS011;6364;53.590;9.956;2023-05-17T03:08:17;14.15;;;3.10;;
12597;SDS011;6364;53.590;9.956;2023-05-17T03:10:42;15.18;;;2.20;;
12597;SDS011;6364;53.590;9.956;2023-05-17T03:13:08;19.20;;;2.63;;
12597;SDS011;6364;53.590;9.956;2023-05-17T03:15:33;20.52;;;2.75;;
12597;SDS011;6364;53.590;9.956;2023-05-17T03:17:58;12.65;;;2.17;;
12597;SDS011;6364;53.590;9.956;2023-05-17T03:20:24;13.38;;;2.42;;
12597;SDS011;6364;53.590;9.956;2023-05-17T03:22:49;15.48;;;3.50;;
12597;SDS011;6364;53.590;9.956;2023-05-17T03:25:15;13.60;;;2.17;;
12597;SDS011;6364;53.590;9.956;2023-05-17T03:27:40;15.02;;;3.15;;
12597;SDS011;6364;53.590;9.956;2023-05-17T03:30:05;15.57;;;2.35;;
12597;SDS011;6364;53.590;9.956;2023-05-17T03:32:32;15.80;;;2.28;;
12597;SDS011;6364;53.590;9.956;2023-05-17T03:34:57;12.35;;;2.80;;
12597;SDS011;6364;53.590;9.956;2023-05-17T03:37:22;22.45;;;3.00;;
12597;SDS011;6364;53.590;9.956;2023-05-17T03:39:48;18.02;;;2.63;;
12597;SDS011;6364;53.590;9.956;2023-05-17T03:42:13;12.45;;;2.78;;
12597;SDS011;6364;53.590;9.956;2023-05-17T03:44:39;24.75;;;2.80;;
12597;SDS011;6364;53.590;9.956;2023-05-17T03:47:04;12.60;;;2.47;;
12597;SDS011;6364;53.590;9.956;2023-05-17T03:49:30;10.40;;;2.58;;
12597;SDS011;6364;53.590;9.956;2023-05-17T03:51:55;17.10;;;2.30;;
12597;SDS011;6364;53.590;9.956;2023-05-17T03:54:20;16.25;;;2.65;;
12597;SDS011;6364;53.590;9.956;2023-05-17T03:56:46;12.60;;;2.53;;
12597;SDS011;6364;53.590;9.956;2023-05-17T03:59:13;26.20;;;3.30;;
12597;SDS011;6364;53.590;9.956;2023-05-17T04:01:39;20.52;;;2.85;;
12597;SDS011;6364;53.590;9.956;2023-05-17T04:04:06;15.75;;;2.83;;
12597;SDS011;6364;53.590;9.956;2023-05-17T04:06:31;12.90;;;2.50;;
12597;SDS011;6364;53.590;9.956;2023-05-17T04:08:57;29.20;;;3.20;;
12597;SDS011;6364;53.590;9.956;2023-05-17T04:11:23;22.08;;;3.10;;
12597;SDS011;6364;53.590;9.956;2023-05-17T04:13:51;13.27;;;3.00;;
12597;SDS011;6364;53.590;9.956;2023-05-17T04:16:16;17.70;;;2.70;;
12597;SDS011;6364;53.590;9.956;2023-05-17T04:18:41;16.63;;;2.67;;
12597;SDS011;6364;53.590;9.956;2023-05-17T04:21:07;22.77;;;3.67;;
12597;SDS011;6364;53.590;9.956;2023-05-17T04:23:32;16.73;;;3.05;;
12597;SDS011;6364;53.590;9.956;2023-05-17T04:25:58;22.73;;;3.13;;
12597;SDS011;6364;53.590;9.956;2023-05-17T04:28:24;15.52;;;3.20;;
12597;SDS011;6364;53.590;9.956;2023-05-17T04:30:50;25.60;;;3.25;;
12597;SDS011;6364;53.590;9.956;2023-05-17T04:33:16;19.88;;;3.10;;
12597;SDS011;6364;53.590;9.956;2023-05-17T04:35:42;14.27;;;3.05;;
12597;SDS011;6364;53.590;9.956;2023-05-17T04:38:07;15.18;;;3.00;;
12597;SDS011;6364;53.590;9.956;2023-05-17T04:40:33;16.98;;;3.60;;
12597;SDS011;6364;53.590;9.956;2023-05-17T04:42:58;22.88;;;3.72;;
12597;SDS011;6364;53.590;9.956;2023-05-17T04:45:24;21.40;;;3.45;;
12597;SDS011;6364;53.590;9.956;2023-05-17T04:47:49;17.52;;;3.10;;
12597;SDS011;6364;53.590;9.956;2023-05-17T04:50:16;17.80;;;2.67;;
12597;SDS011;6364;53.590;9.956;2023-05-17T04:52:42;19.02;;;3.13;;
12597;SDS011;6364;53.590;9.956;2023-05-17T04:55:07;14.00;;;2.90;;
12597;SDS011;6364;53.590;9.956;2023-05-17T04:57:33;17.98;;;3.30;;
12597;SDS011;6364;53.590;9.956;2023-05-17T04:59:58;23.85;;;4.07;;
12597;SDS011;6364;53.590;9.956;2023-05-17T05:02:25;19.10;;;3.35;;
12597;SDS011;6364;53.590;9.956;2023-05-17T05:04:51;22.45;;;3.20;;
12597;SDS011;6364;53.590;9.956;2023-05-17T05:07:16;19.88;;;3.10;;
12597;SDS011;6364;53.590;9.956;2023-05-17T05:09:41;12.45;;;2.70;;
12597;SDS011;6364;53.590;9.956;2023-05-17T05:12:07;20.73;;;3.47;;
12597;SDS011;6364;53.590;9.956;2023-05-17T05:14:32;16.85;;;3.03;;
12597;SDS011;6364;53.590;9.956;2023-05-17T05:16:58;19.08;;;3.80;;
12597;SDS011;6364;53.590;9.956;2023-05-17T05:19:23;27.23;;;3.25;;
12597;SDS011;6364;53.590;9.956;2023-05-17T05:21:48;18.10;;;3.20;;
12597;SDS011;6364;53.590;9.956;2023-05-17T05:24:14;18.52;;;3.00;;
12597;SDS011;6364;53.590;9.956;2023-05-17T05:26:39;14.77;;;3.22;;
12597;SDS011;6364;53.590;9.956;2023-05-17T05:29:05;18.52;;;3.22;;
12597;SDS011;6364;53.590;9.956;2023-05-17T05:31:30;24.27;;;4.07;;
12597;SDS011;6364;53.590;9.956;2023-05-17T05:33:55;17.67;;;2.95;;
12597;SDS011;6364;53.590;9.956;2023-05-17T05:36:21;22.85;;;3.42;;
12597;SDS011;6364;53.590;9.956;2023-05-17T05:38:47;24.92;;;3.30;;
12597;SDS011;6364;53.590;9.956;2023-05-17T05:41:12;21.33;;;3.45;;
12597;SDS011;6364;53.590;9.956;2023-05-17T05:43:37;21.52;;;3.83;;
12597;SDS011;6364;53.590;9.956;2023-05-17T05:46:03;25.17;;;3.60;;
12597;SDS011;6364;53.590;9.956;2023-05-17T05:48:28;21.13;;;3.38;;
12597;SDS011;6364;53.590;9.956;2023-05-17T05:50:54;12.60;;;2.80;;
12597;SDS011;6364;53.590;9.956;2023-05-17T05:53:19;16.10;;;3.15;;
12597;SDS011;6364;53.590;9.956;2023-05-17T05:55:44;16.20;;;2.72;;
12597;SDS011;6364;53.590;9.956;2023-05-17T05:58:10;9.98;;;2.20;;
12597;SDS011;6364;53.590;9.956;2023-05-17T06:00:35;18.55;;;2.60;;
12597;SDS011;6364;53.590;9.956;2023-05-17T06:03:01;14.52;;;2.65;;
12597;SDS011;6364;53.590;9.956;2023-05-17T06:05:26;15.18;;;2.65;;
12597;SDS011;6364;53.590;9.956;2023-05-17T06:07:51;17.35;;;2.53;;
12597;SDS011;6364;53.590;9.956;2023-05-17T06:10:17;14.70;;;2.55;;
12597;SDS011;6364;53.590;9.956;2023-05-17T06:12:42;21.23;;;2.63;;
12597;SDS011;6364;53.590;9.956;2023-05-17T06:15:07;13.70;;;2.47;;
12597;SDS011;6364;53.590;9.956;2023-05-17T06:17:33;15.68;;;2.92;;
12597;SDS011;6364;53.590;9.956;2023-05-17T06:19:58;17.52;;;2.50;;
12597;SDS011;6364;53.590;9.956;2023-05-17T06:22:24;16.02;;;2.78;;
12597;SDS011;6364;53.590;9.956;2023-05-17T06:24:49;13.55;;;2.50;;
12597;SDS011;6364;53.590;9.956;2023-05-17T06:27:14;8.93;;;2.17;;
12597;SDS011;6364;53.590;9.956;2023-05-17T06:29:40;20.02;;;3.30;;
12597;SDS011;6364;53.590;9.956;2023-05-17T06:32:05;16.05;;;2.70;;
12597;SDS011;6364;53.590;9.956;2023-05-17T06:34:31;10.52;;;2.58;;
12597;SDS011;6364;53.590;9.956;2023-05-17T06:36:57;14.57;;;2.58;;
12597;SDS011;6364;53.590;9.956;2023-05-17T06:39:22;14.02;;;2.90;;
12597;SDS011;6364;53.590;9.956;2023-05-17T06:41:47;19.83;;;2.22;;
12597;SDS011;6364;53.590;9.956;2023-05-17T06:44:13;14.52;;;2.75;;
12597;SDS011;6364;53.590;9.956;2023-05-17T06:46:38;15.93;;;2.67;;
12597;SDS011;6364;53.590;9.956;2023-05-17T06:49:03;15.05;;;2.67;;
12597;SDS011;6364;53.590;9.956;2023-05-17T06:51:29;14.23;;;2.10;;
12597;SDS011;6364;53.590;9.956;2023-05-17T06:53:55;15.07;;;2.83;;
12597;SDS011;6364;53.590;9.956;2023-05-17T06:56:20;14.60;;;2.47;;
12597;SDS011;6364;53.590;9.956;2023-05-17T06:58:45;14.07;;;2.90;;
12597;SDS011;6364;53.590;9.956;2023-05-17T07:01:11;12.25;;;2.40;;
12597;SDS011;6364;53.590;9.956;2023-05-17T07:03:37;8.55;;;2.33;;
12597;SDS011;6364;53.590;9.956;2023-05-17T07:06:02;17.77;;;2.67;;
12597;SDS011;6364;53.590;9.956;2023-05-17T07:08:27;13.05;;;2.30;;
12597;SDS011;6364;53.590;9.956;2023-05-17T07:10:53;13.85;;;2.53;;
12597;SDS011;6364;53.590;9.956;2023-05-17T07:13:18;16.75;;;2.95;;
12597;SDS011;6364;53.590;9.956;2023-05-17T07:15:43;15.73;;;3.22;;
12597;SDS011;6364;53.590;9.956;2023-05-17T07:18:09;13.60;;;2.70;;
12597;SDS011;6364;53.590;9.956;2023-05-17T07:20:34;17.77;;;2.95;;
12597;SDS011;6364;53.590;9.956;2023-05-17T07:23:00;14.82;;;2.42;;
12597;SDS011;6364;53.590;9.956;2023-05-17T07:25:25;10.98;;;2.80;;
12597;SDS011;6364;53.590;9.956;2023-05-17T07:27:50;11.70;;;2.78;;
12597;SDS011;6364;53.590;9.956;2023-05-17T07:30:16;16.48;;;2.70;;
12597;SDS011;6364;53.590;9.956;2023-05-17T07:32:41;20.02;;;3.13;;
12597;SDS011;6364;53.590;9.956;2023-05-17T07:35:06;13.52;;;2.97;;
12597;SDS011;6364;53.590;9.956;2023-05-17T07:37:32;16.15;;;2.75;;
12597;SDS011;6364;53.590;9.956;2023-05-17T07:39:57;14.85;;;2.60;;
12597;SDS011;6364;53.590;9.956;2023-05-17T07:42:22;18.60;;;2.70;;
12597;SDS011;6364;53.590;9.956;2023-05-17T07:44:48;13.73;;;2.20;;
12597;SDS011;6364;53.590;9.956;2023-05-17T07:47:14;13.50;;;2.70;;
12597;SDS011;6364;53.590;9.956;2023-05-17T07:49:39;14.52;;;3.10;;
12597;SDS011;6364;53.590;9.956;2023-05-17T07:52:05;12.00;;;2.50;;
12597;SDS011;6364;53.590;9.956;2023-05-17T07:54:30;11.18;;;2.20;;
12597;SDS011;6364;53.590;9.956;2023-05-17T07:56:56;16.30;;;2.40;;
12597;SDS011;6364;53.590;9.956;2023-05-17T07:59:21;13.35;;;2.05;;
12597;SDS011;6364;53.590;9.956;2023-05-17T08:01:47;11.68;;;2.50;;
12597;SDS011;6364;53.590;9.956;2023-05-17T08:04:12;17.52;;;2.40;;
12597;SDS011;6364;53.590;9.956;2023-05-17T08:06:41;10.85;;;2.30;;
12597;SDS011;6364;53.590;9.956;2023-05-17T08:09:07;12.32;;;2.50;;
12597;SDS011;6364;53.590;9.956;2023-05-17T08:11:32;13.32;;;2.67;;
12597;SDS011;6364;53.590;9.956;2023-05-17T08:13:59;12.05;;;2.53;;
12597;SDS011;6364;53.590;9.956;2023-05-17T08:16:24;11.65;;;2.92;;
12597;SDS011;6364;53.590;9.956;2023-05-17T08:18:50;12.18;;;2.35;;
12597;SDS011;6364;53.590;9.956;2023-05-17T08:21:15;10.55;;;2.55;;
12597;SDS011;6364;53.590;9.956;2023-05-17T08:23:41;15.93;;;2.88;;
12597;SDS011;6364;53.590;9.956;2023-05-17T08:26:06;14.15;;;2.25;;
12597;SDS011;6364;53.590;9.956;2023-05-17T08:28:31;17.42;;;2.67;;
12597;SDS011;6364;53.590;9.956;2023-05-17T08:30:57;10.18;;;2.25;;
12597;SDS011;6364;53.590;9.956;2023-05-17T08:33:22;22.20;;;3.08;;
12597;SDS011;6364;53.590;9.956;2023-05-17T08:35:49;15.30;;;2.55;;
12597;SDS011;6364;53.590;9.956;2023-05-17T08:38:16;13.02;;;2.45;;
12597;SDS011;6364;53.590;9.956;2023-05-17T08:40:42;15.65;;;2.42;;
12597;SDS011;6364;53.590;9.956;2023-05-17T08:43:07;15.35;;;2.80;;
12597;SDS011;6364;53.590;9.956;2023-05-17T08:45:36;14.18;;;3.20;;
12597;SDS011;6364;53.590;9.956;2023-05-17T08:48:01;12.57;;;2.55;;
12597;SDS011;6364;53.590;9.956;2023-05-17T08:50:27;16.48;;;2.40;;
12597;SDS011;6364;53.590;9.956;2023-05-17T08:52:54;10.63;;;2.50;;
12597;SDS011;6364;53.590;9.956;2023-05-17T08:55:20;12.25;;;2.45;;
12597;SDS011;6364;53.590;9.956;2023-05-17T08:57:45;17.85;;;3.38;;
12597;SDS011;6364;53.590;9.956;2023-05-17T09:00:11;19.52;;;2.78;;
12597;SDS011;6364;53.590;9.956;2023-05-17T09:02:40;16.85;;;2.92;;
12597;SDS011;6364;53.590;9.956;2023-05-17T09:05:06;16.52;;;2.90;;
12597;SDS011;6364;53.590;9.956;2023-05-17T09:07:32;17.45;;;2.60;;
12597;SDS011;6364;53.590;9.956;2023-05-17T09:09:58;11.82;;;2.40;;
12597;SDS011;6364;53.590;9.956;2023-05-17T09:12:23;11.85;;;2.70;;
12597;SDS011;6364;53.590;9.956;2023-05-17T09:14:48;15.02;;;2.40;;
12597;SDS011;6364;53.590;9.956;2023-05-17T09:17:17;15.77;;;2.70;;
12597;SDS011;6364;53.590;9.956;2023-05-17T09:19:44;15.07;;;2.92;;
12597;SDS011;6364;53.590;9.956;2023-05-17T09:22:11;15.15;;;2.70;;
12597;SDS011;6364;53.590;9.956;2023-05-17T09:24:38;10.98;;;2.20;;
12597;SDS011;6364;53.590;9.956;2023-05-17T09:27:04;15.07;;;2.75;;
12597;SDS011;6364;53.590;9.956;2023-05-17T09:29:30;14.90;;;2.92;;
12597;SDS011;6364;53.590;9.956;2023-05-17T09:31:56;20.23;;;3.42;;
12597;SDS011;6364;53.590;9.956;2023-05-17T09:34:23;12.70;;;2.63;;
12597;SDS011;6364;53.590;9.956;2023-05-17T09:36:48;14.63;;;2.95;;
12597;SDS011;6364;53.590;9.956;2023-05-17T09:39:14;16.40;;;2.95;;
12597;SDS011;6364;53.590;9.956;2023-05-17T09:41:40;18.02;;;3.10;;
12597;SDS011;6364;53.590;9.956;2023-05-17T09:44:10;11.75;;;2.90;;
12597;SDS011;6364;53.590;9.956;2023-05-17T09:46:38;23.52;;;3.33;;
12597;SDS011;6364;53.590;9.956;2023-05-17T09:49:05;14.60;;;2.78;;
12597;SDS011;6364;53.590;9.956;2023-05-17T09:51:33;14.15;;;2.92;;
12597;SDS011;6364;53.590;9.956;2023-05-17T09:53:59;13.85;;;2.80;;
12597;SDS011;6364;53.590;9.956;2023-05-17T09:56:28;13.45;;;2.83;;
12597;SDS011;6364;53.590;9.956;2023-05-17T09:58:54;14.65;;;2.83;;
12597;SDS011;6364;53.590;9.956;2023-05-17T10:01:20;15.60;;;2.88;;
12597;SDS011;6364;53.590;9.956;2023-05-17T10:03:46;10.38;;;2.72;;
12597;SDS011;6364;53.590;9.956;2023-05-17T10:06:11;11.98;;;2.60;;
12597;SDS011;6364;53.590;9.956;2023-05-17T10:08:39;10.70;;;2.58;;
12597;SDS011;6364;53.590;9.956;2023-05-17T10:11:08;13.95;;;2.67;;
12597;SDS011;6364;53.590;9.956;2023-05-17T10:13:43;12.65;;;2.60;;
12597;SDS011;6364;53.590;9.956;2023-05-17T10:16:10;12.63;;;3.10;;
12597;SDS011;6364;53.590;9.956;2023-05-17T10:18:36;13.38;;;2.63;;
12597;SDS011;6364;53.590;9.956;2023-05-17T10:21:04;14.15;;;2.83;;
12597;SDS011;6364;53.590;9.956;2023-05-17T10:23:31;14.82;;;3.05;;
12597;SDS011;6364;53.590;9.956;2023-05-17T10:25:57;14.13;;;2.65;;
12597;SDS011;6364;53.590;9.956;2023-05-17T10:28:23;10.38;;;2.38;;
12597;SDS011;6364;53.590;9.956;2023-05-17T10:30:50;16.05;;;2.75;;
12597;SDS011;6364;53.590;9.956;2023-05-17T10:33:18;11.32;;;2.25;;
12597;SDS011;6364;53.590;9.956;2023-05-17T10:35:45;9.38;;;2.45;;
12597;SDS011;6364;53.590;9.956;2023-05-17T10:38:11;8.75;;;1.90;;
12597;SDS011;6364;53.590;9.956;2023-05-17T10:40:37;12.80;;;2.40;;
12597;SDS011;6364;53.590;9.956;2023-05-17T10:43:04;8.35;;;2.13;;
12597;SDS011;6364;53.590;9.956;2023-05-17T10:45:29;13.13;;;2.33;;
12597;SDS011;6364;53.590;9.956;2023-05-17T10:47:55;13.43;;;2.75;;
12597;SDS011;6364;53.590;9.956;2023-05-17T10:50:25;14.68;;;2.50;;
12597;SDS011;6364;53.590;9.956;2023-05-17T10:52:51;9.05;;;2.28;;
12597;SDS011;6364;53.590;9.956;2023-05-17T10:55:21;16.98;;;2.72;;
12597;SDS011;6364;53.590;9.956;2023-05-17T10:58:07;9.27;;;2.55;;
12597;SDS011;6364;53.590;9.956;2023-05-17T11:00:39;8.77;;;2.15;;
12597;SDS011;6364;53.590;9.956;2023-05-17T11:03:15;9.30;;;2.17;;
12597;SDS011;6364;53.590;9.956;2023-05-17T11:06:10;8.32;;;2.20;;
12597;SDS011;6364;53.590;9.956;2023-05-17T11:08:38;8.93;;;2.10;;
12597;SDS011;6364;53.590;9.956;2023-05-17T11:11:10;8.07;;;2.22;;
12597;SDS011;6364;53.590;9.956;2023-05-17T11:13:43;7.55;;;2.20;;
12597;SDS011;6364;53.590;9.956;2023-05-17T11:16:21;5.75;;;1.85;;
12597;SDS011;6364;53.590;9.956;2023-05-17T11:18:54;8.98;;;1.55;;
12597;SDS011;6364;53.590;9.956;2023-05-17T11:21:22;7.72;;;1.73;;
12597;SDS011;6364;53.590;9.956;2023-05-17T11:23:53;11.05;;;1.98;;
12597;SDS011;6364;53.590;9.956;2023-05-17T11:26:21;9.32;;;1.88;;
12597;SDS011;6364;53.590;9.956;2023-05-17T11:29:13;7.93;;;2.25;;
12597;SDS011;6364;53.590;9.956;2023-05-17T11:31:42;9.95;;;2.08;;
12597;SDS011;6364;53.590;9.956;2023-05-17T11:34:08;7.75;;;1.60;;
12597;SDS011;6364;53.590;9.956;2023-05-17T11:36:51;6.88;;;1.98;;
12597;SDS011;6364;53.590;9.956;2023-05-17T11:39:18;6.47;;;1.70;;
12597;SDS011;6364;53.590;9.956;2023-05-17T11:41:49;10.45;;;2.25;;
12597;SDS011;6364;53.590;9.956;2023-05-17T11:44:16;9.25;;;1.92;;
12597;SDS011;6364;53.590;9.956;2023-05-17T11:46:49;18.70;;;2.72;;
12597;SDS011;6364;53.590;9.956;2023-05-17T11:49:14;8.70;;;1.83;;
12597;SDS011;6364;53.590;9.956;2023-05-17T11:51:40;10.23;;;1.92;;
12597;SDS011;6364;53.590;9.956;2023-05-17T11:54:06;7.60;;;1.67;;
12597;SDS011;6364;53.590;9.956;2023-05-17T11:56:33;7.65;;;1.58;;
12597;SDS011;6364;53.590;9.956;2023-05-17T11:59:00;7.13;;;1.70;;
12597;SDS011;6364;53.590;9.956;2023-05-17T12:01:26;13.93;;;2.20;;
12597;SDS011;6364;53.590;9.956;2023-05-17T12:03:55;7.50;;;1.85;;
12597;SDS011;6364;53.590;9.956;2023-05-17T12:06:24;15.52;;;2.20;;
12597;SDS011;6364;53.590;9.956;2023-05-17T12:08:49;13.10;;;2.50;;
12597;SDS011;6364;53.590;9.956;2023-05-17T12:11:15;9.02;;;1.67;;
12597;SDS011;6364;53.590;9.956;2023-05-17T12:13:41;6.80;;;1.77;;
12597;SDS011;6364;53.590;9.956;2023-05-17T12:16:11;8.52;;;2.05;;
12597;SDS011;6364;53.590;9.956;2023-05-17T12:18:38;8.40;;;2.40;;
12597;SDS011;6364;53.590;9.956;2023-05-17T12:21:08;8.00;;;2.03;;
12597;SDS011;6364;53.590;9.956;2023-05-17T12:23:34;14.95;;;3.00;;
12597;SDS011;6364;53.590;9.956;2023-05-17T12:28:37;8.75;;;2.00;;
12597;SDS011;6364;53.590;9.956;2023-05-17T12:31:04;10.82;;;2.15;;
12597;SDS011;6364;53.590;9.956;2023-05-17T12:33:40;8.38;;;2.15;;
12597;SDS011;6364;53.590;9.956;2023-05-17T12:36:06;14.48;;;2.70;;
12597;SDS011;6364;53.590;9.956;2023-05-17T12:38:33;13.98;;;2.40;;
12597;SDS011;6364;53.590;9.956;2023-05-17T12:41:00;12.75;;;2.47;;
12597;SDS011;6364;53.590;9.956;2023-05-17T12:43:27;9.73;;;2.22;;
12597;SDS011;6364;53.590;9.956;2023-05-17T12:45:54;12.70;;;2.30;;
12597;SDS011;6364;53.590;9.956;2023-05-17T12:48:24;10.05;;;2.25;;
12597;SDS011;6364;53.590;9.956;2023-05-17T12:50:50;10.18;;;2.15;;
12597;SDS011;6364;53.590;9.956;2023-05-17T12:53:16;8.02;;;1.65;;
12597;SDS011;6364;53.590;9.956;2023-05-17T12:55:41;10.40;;;2.67;;
12597;SDS011;6364;53.590;9.956;2023-05-17T12:58:06;6.90;;;2.08;;
12597;SDS011;6364;53.590;9.956;2023-05-17T13:00:32;8.40;;;2.40;;
12597;SDS011;6364;53.590;9.956;2023-05-17T13:02:58;11.45;;;2.50;;
12597;SDS011;6364;53.590;9.956;2023-05-17T13:05:23;9.43;;;2.20;;
12597;SDS011;6364;53.590;9.956;2023-05-17T13:07:49;9.77;;;2.25;;
12597;SDS011;6364;53.590;9.956;2023-05-17T13:10:21;9.00;;;1.83;;
12597;SDS011;6364;53.590;9.956;2023-05-17T13:12:54;13.13;;;2.30;;
12597;SDS011;6364;53.590;9.956;2023-05-17T13:15:20;8.80;;;2.00;;
12597;SDS011;6364;53.590;9.956;2023-05-17T13:17:51;9.85;;;2.20;;
12597;SDS011;6364;53.590;9.956;2023-05-17T13:20:16;8.00;;;2.00;;
12597;SDS011;6364;53.590;9.956;2023-05-17T13:22:45;10.52;;;2.13;;
12597;SDS011;6364;53.590;9.956;2023-05-17T13:25:11;9.02;;;2.42;;
12597;SDS011;6364;53.590;9.956;2023-05-17T13:27:36;12.55;;;2.22;;
12597;SDS011;6364;53.590;9.956;2023-05-17T13:30:02;6.72;;;2.03;;
12597;SDS011;6364;53.590;9.956;2023-05-17T13:32:28;9.05;;;2.10;;
12597;SDS011;6364;53.590;9.956;2023-05-17T13:34:53;7.57;;;2.03;;
12597;SDS011;6364;53.590;9.956;2023-05-17T13:37:19;8.88;;;2.05;;
12597;SDS011;6364;53.590;9.956;2023-05-17T13:39:45;8.90;;;2.20;;
12597;SDS011;6364;53.590;9.956;2023-05-17T13:42:10;7.07;;;1.90;;
12597;SDS011;6364;53.590;9.956;2023-05-17T13:44:36;8.40;;;2.00;;
12597;SDS011;6364;53.590;9.956;2023-05-17T13:47:02;10.48;;;2.45;;
12597;SDS011;6364;53.590;9.956;2023-05-17T13:49:27;12.65;;;2.55;;
12597;SDS011;6364;53.590;9.956;2023-05-17T13:51:53;13.55;;;2.38;;
12597;SDS011;6364;53.590;9.956;2023-05-17T13:54:18;9.32;;;2.60;;
12597;SDS011;6364;53.590;9.956;2023-05-17T13:56:44;10.25;;;2.03;;
12597;SDS011;6364;53.590;9.956;2023-05-17T13:59:10;12.50;;;2.50;;
12597;SDS011;6364;53.590;9.956;2023-05-17T14:01:36;11.13;;;2.50;;
12597;SDS011;6364;53.590;9.956;2023-05-17T14:04:01;12.15;;;2.50;;
12597;SDS011;6364;53.590;9.956;2023-05-17T14:06:26;12.68;;;2.72;;
12597;SDS011;6364;53.590;9.956;2023-05-17T14:08:52;11.95;;;2.20;;
12597;SDS011;6364;53.590;9.956;2023-05-17T14:11:18;16.17;;;2.67;;
12597;SDS011;6364;53.590;9.956;2023-05-17T14:13:43;8.90;;;2.22;;
12597;SDS011;6364;53.590;9.956;2023-05-17T14:16:09;11.55;;;2.47;;
12597;SDS011;6364;53.590;9.956;2023-05-17T14:18:34;8.60;;;2.40;;
12597;SDS011;6364;53.590;9.956;2023-05-17T14:20:59;10.27;;;2.22;;
12597;SDS011;6364;53.590;9.956;2023-05-17T14:23:25;9.43;;;2.67;;
12597;SDS011;6364;53.590;9.956;2023-05-17T14:25:50;14.13;;;2.58;;
12597;SDS011;6364;53.590;9.956;2023-05-17T14:28:16;9.40;;;2.28;;
12597;SDS011;6364;53.590;9.956;2023-05-17T14:30:42;9.52;;;2.65;;
12597;SDS011;6364;53.590;9.956;2023-05-17T14:33:07;9.30;;;2.13;;
12597;SDS011;6364;53.590;9.956;2023-05-17T14:35:33;10.18;;;2.40;;
12597;SDS011;6364;53.590;9.956;2023-05-17T14:37:59;10.55;;;2.50;;
12597;SDS011;6364;53.590;9.956;2023-05-17T14:40:24;8.00;;;2.08;;
12597;SDS011;6364;53.590;9.956;2023-05-17T14:42:49;9.15;;;2.42;;
12597;SDS011;6364;53.590;9.956;2023-05-17T14:45:15;10.60;;;2.30;;
12597;SDS011;6364;53.590;9.956;2023-05-17T14:47:40;15.88;;;2.38;;
12597;SDS011;6364;53.590;9.956;2023-05-17T14:50:06;13.63;;;2.25;;
12597;SDS011;6364;53.590;9.956;2023-05-17T14:52:32;14.77;;;2.15;;
12597;SDS011;6364;53.590;9.956;2023-05-17T14:54:57;13.15;;;2.42;;
12597;SDS011;6364;53.590;9.956;2023-05-17T14:57:23;10.98;;;2.22;;